createdAt,value
2023-01-11T00:01:27.997Z,100.00
2023-01-11T00:03:56.400Z,100.00
2023-01-11T00:06:26.223Z,100.00
2023-01-11T00:09:00.045Z,100.00
2023-01-11T00:11:28.739Z,100.00
2023-01-11T00:13:56.983Z,100.00
2023-01-11T00:16:25.426Z,100.00
2023-01-11T00:18:53.794Z,100.00
2023-01-11T00:21:22.799Z,100.00
2023-01-11T00:23:52.482Z,100.00
2023-01-11T00:26:20.845Z,100.00
2023-01-11T00:28:49.963Z,100.00
2023-01-11T00:31:18.658Z,100.00
2023-01-11T00:33:46.938Z,100.00
2023-01-11T00:36:15.258Z,100.00
2023-01-11T00:38:47.170Z,100.00
2023-01-11T00:41:43.155Z,100.00
2023-01-11T00:44:29.523Z,100.00
2023-01-11T00:47:15.366Z,100.00
2023-01-11T00:49:43.878Z,100.00
2023-01-11T00:52:12.668Z,100.00
2023-01-11T00:54:42.757Z,100.00
2023-01-11T00:57:12.969Z,100.00
2023-01-11T00:59:41.418Z,100.00
2023-01-11T01:02:10.578Z,100.00
2023-01-11T01:04:39.530Z,100.00
2023-01-11T01:07:08.254Z,100.00
2023-01-11T01:09:36.561Z,99.75
2023-01-11T01:12:07.100Z,97.61
2023-01-11T01:14:36.464Z,100.00
2023-01-11T01:17:08.412Z,97.44
2023-01-11T01:19:39.108Z,97.96
2023-01-11T01:22:07.483Z,98.41
2023-01-11T01:24:35.969Z,97.51
2023-01-11T01:27:04.226Z,99.14
2023-01-11T01:29:32.450Z,100.00
2023-01-11T01:32:02.150Z,100.00
2023-01-11T01:34:30.528Z,100.00
2023-01-11T01:36:58.830Z,100.00
2023-01-11T01:39:28.983Z,100.00
2023-01-11T01:41:57.477Z,100.00
2023-01-11T01:44:55.208Z,100.00
2023-01-11T01:47:28.618Z,100.00
2023-01-11T01:49:58.889Z,98.45
2023-01-11T01:52:29.434Z,95.83
2023-01-11T01:55:01.951Z,96.23
2023-01-11T01:57:35.612Z,98.56
2023-01-11T02:00:08.872Z,97.73
2023-01-11T02:02:40.112Z,96.65
2023-01-11T02:05:10.245Z,97.57
2023-01-11T02:07:41.811Z,100.00
2023-01-11T02:10:12.064Z,100.00
2023-01-11T02:12:43.535Z,100.00
2023-01-11T02:15:12.935Z,100.00
2023-01-11T02:17:42.605Z,100.00
2023-01-11T02:20:21.691Z,100.00
2023-01-11T02:23:10.850Z,100.00
2023-01-11T02:26:18.959Z,100.00
2023-01-11T02:28:54.985Z,100.00
2023-01-11T02:31:32.158Z,100.00
2023-01-11T02:34:16.638Z,100.00
2023-01-11T02:37:03.189Z,100.00
2023-01-11T02:39:40.907Z,100.00
2023-01-11T02:42:32.875Z,100.00
2023-01-11T02:45:13.427Z,100.00
2023-01-11T02:47:49.653Z,100.00
2023-01-11T02:50:23.249Z,100.00
2023-01-11T02:52:58.146Z,100.00
2023-01-11T02:55:31.977Z,100.00
2023-01-11T02:58:05.022Z,100.00
2023-01-11T03:00:35.149Z,100.00
2023-01-11T03:03:13.832Z,100.00
2023-01-11T03:05:50.506Z,100.00
2023-01-11T03:08:40.822Z,100.00
2023-01-11T03:11:14.516Z,100.00
2023-01-11T03:13:55.286Z,100.00
2023-01-11T03:16:28.655Z,100.00
2023-01-11T03:19:14.793Z,100.00
2023-01-11T03:21:57.383Z,100.00
2023-01-11T03:24:34.178Z,100.00
2023-01-11T03:27:18.638Z,100.00
2023-01-11T03:29:53.532Z,100.00
2023-01-11T03:32:33.647Z,100.00
2023-01-11T03:35:18.211Z,100.00
2023-01-11T03:37:52.618Z,100.00
2023-01-11T03:40:24.629Z,100.00
2023-01-11T03:43:14.301Z,100.00
2023-01-11T03:45:48.140Z,100.00
2023-01-11T03:48:21.914Z,100.00
2023-01-11T03:50:52.872Z,100.00
2023-01-11T03:53:24.462Z,100.00
2023-01-11T03:55:57.286Z,100.00
2023-01-11T03:58:27.180Z,100.00
2023-01-11T04:00:56.984Z,100.00
2023-01-11T04:03:28.342Z,100.00
2023-01-11T04:06:00.654Z,100.00
2023-01-11T04:08:29.000Z,100.00
2023-01-11T04:10:57.455Z,100.00
2023-01-11T04:13:25.779Z,100.00
2023-01-11T04:15:54.799Z,100.00
2023-01-11T04:18:23.425Z,100.00
2023-01-11T04:20:53.177Z,100.00
2023-01-11T04:23:21.463Z,100.00
2023-01-11T04:25:49.713Z,100.00
2023-01-11T04:28:18.030Z,100.00
2023-01-11T04:30:46.236Z,100.00
2023-01-11T04:33:14.653Z,100.00
2023-01-11T04:35:44.040Z,100.00
2023-01-11T04:38:13.903Z,100.00
2023-01-11T04:40:42.250Z,100.00
2023-01-11T04:43:09.497Z,100.00
2023-01-11T04:45:40.182Z,100.00
2023-01-11T04:48:08.601Z,100.00
2023-01-11T04:50:36.878Z,100.00
2023-01-11T04:53:05.250Z,100.00
2023-01-11T04:55:34.970Z,100.00
2023-01-11T04:58:03.228Z,100.00
2023-01-11T05:00:31.499Z,100.00
2023-01-11T05:03:03.361Z,100.00
2023-01-11T05:05:31.703Z,100.00
2023-01-11T05:07:59.977Z,100.00
2023-01-11T05:10:28.253Z,100.00
2023-01-11T05:12:57.919Z,100.00
2023-01-11T05:15:26.265Z,100.00
2023-01-11T05:17:54.648Z,100.00
2023-01-11T05:20:22.958Z,100.00
2023-01-11T05:22:51.233Z,100.00
2023-01-11T05:25:19.508Z,100.00
2023-01-11T05:27:47.781Z,100.00
2023-01-11T05:30:20.024Z,100.00
2023-01-11T05:32:48.361Z,100.00
2023-01-11T05:35:16.828Z,100.00
2023-01-11T05:37:45.127Z,100.00
2023-01-11T05:40:14.084Z,100.00
2023-01-11T05:42:42.419Z,100.00
2023-01-11T05:45:30.952Z,100.00
2023-01-11T05:48:00.994Z,100.00
2023-01-11T05:50:29.343Z,100.00
2023-01-11T05:52:58.876Z,100.00
2023-01-11T05:55:27.207Z,100.00
2023-01-11T05:57:55.590Z,100.00
2023-01-11T06:00:24.802Z,100.00
2023-01-11T06:02:53.181Z,100.00
2023-01-11T06:05:22.963Z,100.00
2023-01-11T06:07:51.462Z,100.00
2023-01-11T06:10:19.836Z,100.00
2023-01-11T06:13:13.258Z,100.00
2023-01-11T06:15:41.749Z,100.00
2023-01-11T06:18:10.099Z,100.00
2023-01-11T06:20:41.242Z,100.00
2023-01-11T06:23:09.521Z,100.00
2023-01-11T06:25:38.437Z,100.00
2023-01-11T06:28:06.928Z,100.00
2023-01-11T06:30:35.354Z,100.00
2023-01-11T06:33:21.837Z,100.00
2023-01-11T06:35:52.957Z,100.00
2023-01-11T06:38:23.887Z,100.00
2023-01-11T06:40:54.469Z,100.00
2023-01-11T06:43:23.316Z,100.00
2023-01-11T06:45:52.041Z,100.00
2023-01-11T06:48:22.048Z,100.00
2023-01-11T06:50:53.205Z,100.00
2023-01-11T06:53:21.936Z,100.00
2023-01-11T06:55:52.376Z,100.00
2023-01-11T06:58:20.903Z,100.00
2023-01-11T07:00:49.297Z,100.00
2023-01-11T07:03:17.815Z,100.00
2023-01-11T07:05:46.564Z,100.00
2023-01-11T07:08:16.489Z,100.00
2023-01-11T07:10:44.970Z,100.00
2023-01-11T07:13:16.335Z,100.00
2023-01-11T07:15:45.118Z,100.00
2023-01-11T07:18:13.592Z,100.00
2023-01-11T07:20:41.977Z,100.00
2023-01-11T07:23:11.083Z,99.71
2023-01-11T07:25:41.335Z,99.73
2023-01-11T07:28:10.184Z,97.92
2023-01-11T07:31:00.618Z,97.70
2023-01-11T07:33:29.163Z,93.35
2023-01-11T07:35:58.438Z,93.44
2023-01-11T07:38:26.690Z,94.06
2023-01-11T07:40:56.484Z,95.38
2023-01-11T07:43:23.964Z,96.10
2023-01-11T07:45:53.816Z,96.27
2023-01-11T07:48:25.470Z,96.22
2023-01-11T07:50:54.399Z,96.58
2023-01-11T07:53:25.784Z,98.72
2023-01-11T07:55:56.309Z,97.28
2023-01-11T07:58:25.245Z,99.04
2023-01-11T08:00:53.721Z,99.93
2023-01-11T08:03:22.159Z,96.07
2023-01-11T08:05:52.124Z,97.49
2023-01-11T08:08:20.466Z,97.80
2023-01-11T08:11:08.836Z,99.43
2023-01-11T08:13:55.933Z,96.42
2023-01-11T08:16:24.599Z,100.00
2023-01-11T08:18:52.937Z,100.00
2023-01-11T08:21:24.469Z,100.00
2023-01-11T08:23:54.902Z,100.00
2023-01-11T08:26:24.040Z,100.00
2023-01-11T08:28:55.275Z,100.00
2023-01-11T08:31:24.732Z,100.00
2023-01-11T08:33:53.521Z,100.00
2023-01-11T08:36:21.916Z,96.16
2023-01-11T08:38:50.122Z,89.73
2023-01-11T08:41:18.417Z,85.15
2023-01-11T08:43:47.497Z,81.98
2023-01-11T08:46:18.421Z,81.53
2023-01-11T08:48:47.974Z,82.69
2023-01-11T08:51:16.386Z,80.92
2023-01-11T08:53:44.733Z,85.37
2023-01-11T08:56:13.457Z,85.67
2023-01-11T08:58:41.676Z,86.56
2023-01-11T09:01:10.061Z,87.36
2023-01-11T09:03:39.828Z,85.32
2023-01-11T09:06:08.500Z,86.12
2023-01-11T09:08:36.822Z,84.46
2023-01-11T09:11:25.236Z,85.53
2023-01-11T09:13:53.525Z,84.99
2023-01-11T09:16:21.800Z,84.34
2023-01-11T09:18:51.740Z,83.39
2023-01-11T09:21:20.082Z,80.71
2023-01-11T09:23:48.380Z,79.05
2023-01-11T09:26:16.793Z,76.83
2023-01-11T09:28:45.173Z,79.06
2023-01-11T09:31:13.774Z,74.78
2023-01-11T09:33:42.156Z,74.42
2023-01-11T09:36:12.110Z,73.02
2023-01-11T09:38:41.133Z,72.51
2023-01-11T09:41:24.398Z,67.97
2023-01-11T09:44:01.890Z,64.88
2023-01-11T09:46:31.225Z,66.85
2023-01-11T09:49:00.778Z,66.93
2023-01-11T09:51:35.233Z,63.56
2023-01-11T09:54:07.987Z,62.43
2023-01-11T09:56:45.998Z,62.72
2023-01-11T09:59:24.897Z,60.91
2023-01-11T10:02:05.528Z,62.12
2023-01-11T10:05:10.925Z,63.79
2023-01-11T10:18:33.922Z,62.61
2023-01-11T10:19:48.296Z,62.43
2023-01-11T10:22:23.539Z,61.44
2023-01-11T10:24:59.965Z,64.04
2023-01-11T10:27:35.850Z,65.08
2023-01-11T10:30:33.496Z,65.57
2023-01-11T10:33:18.453Z,66.61
2023-01-11T10:36:10.674Z,65.42
2023-01-11T10:39:03.438Z,66.42
2023-01-11T10:41:43.163Z,69.72
2023-01-11T10:44:19.495Z,72.49
2023-01-11T10:46:51.270Z,69.63
2023-01-11T10:49:41.193Z,68.95
2023-01-11T10:52:23.220Z,67.17
2023-01-11T10:54:55.994Z,66.06
2023-01-11T10:57:38.193Z,63.63
2023-01-11T11:00:35.589Z,61.82
2023-01-11T11:03:45.247Z,61.98
2023-01-11T11:06:22.597Z,60.82
2023-01-11T11:08:58.466Z,61.61
2023-01-11T11:11:35.081Z,61.17
2023-01-11T11:14:13.780Z,62.78
2023-01-11T11:16:55.093Z,62.45
2023-01-11T11:19:26.646Z,64.54
2023-01-11T11:21:54.904Z,66.00
2023-01-11T11:24:32.590Z,65.61
2023-01-11T11:27:08.480Z,65.81
2023-01-11T11:29:44.735Z,66.64
2023-01-11T11:32:22.379Z,64.17
2023-01-11T11:34:52.305Z,66.91
2023-01-11T11:37:27.932Z,69.38
2023-01-11T11:39:56.754Z,69.30
2023-01-11T11:42:25.581Z,67.36
2023-01-11T11:45:19.134Z,65.75
2023-01-11T11:48:08.142Z,64.30
2023-01-11T11:50:44.804Z,62.46
2023-01-11T11:53:25.207Z,59.75
2023-01-11T11:55:54.545Z,57.17
2023-01-11T11:58:26.446Z,56.28
2023-01-11T12:00:56.272Z,55.15
2023-01-11T12:03:30.266Z,52.98
2023-01-11T12:06:02.094Z,52.22
2023-01-11T12:08:32.851Z,52.83
2023-01-11T12:11:04.163Z,50.46
2023-01-11T12:13:35.420Z,50.97
2023-01-11T12:16:08.228Z,51.54
2023-01-11T12:18:42.603Z,52.24
2023-01-11T12:21:19.714Z,51.15
2023-01-11T12:23:48.578Z,49.03
2023-01-11T12:26:22.877Z,48.26
2023-01-11T12:29:15.750Z,47.79
2023-01-11T12:31:58.652Z,46.67
2023-01-11T12:35:06.044Z,47.09
2023-01-11T12:37:51.803Z,47.74
2023-01-11T12:40:28.672Z,47.00
2023-01-11T12:43:20.647Z,43.76
2023-01-11T12:45:56.823Z,45.29
2023-01-11T12:48:53.810Z,44.75
2023-01-11T12:51:42.869Z,45.48
2023-01-11T12:54:31.385Z,45.10
2023-01-11T12:57:12.906Z,45.37
2023-01-11T13:00:00.205Z,46.44
2023-01-11T13:02:47.882Z,46.09
2023-01-11T13:05:26.070Z,45.08
2023-01-11T13:08:06.698Z,42.91
2023-01-11T13:10:43.897Z,43.38
2023-01-11T13:13:17.356Z,44.22
2023-01-11T13:15:54.913Z,44.50
2023-01-11T13:18:31.288Z,42.57
2023-01-11T13:21:09.396Z,44.61
2023-01-11T13:23:43.551Z,45.56
2023-01-11T13:26:23.515Z,45.12
2023-01-11T13:28:56.491Z,43.62
2023-01-11T13:31:26.233Z,42.84
2023-01-11T13:33:59.148Z,42.00
2023-01-11T13:36:33.684Z,43.86
2023-01-11T13:39:06.323Z,44.25
2023-01-11T13:41:39.691Z,43.68
2023-01-11T13:44:16.451Z,43.40
2023-01-11T13:46:55.147Z,42.18
2023-01-11T13:49:38.361Z,41.01
2023-01-11T13:52:14.287Z,44.07
2023-01-11T13:54:51.785Z,44.43
2023-01-11T13:57:28.546Z,45.70
2023-01-11T14:00:05.992Z,44.87
2023-01-11T14:02:40.855Z,45.67
2023-01-11T14:05:16.131Z,47.84
2023-01-11T14:08:00.971Z,47.85
2023-01-11T14:10:44.565Z,48.04
2023-01-11T14:13:59.688Z,49.19
2023-01-11T14:16:39.522Z,51.54
2023-01-11T14:19:19.485Z,51.40
2023-01-11T14:22:02.457Z,52.18
2023-01-11T14:24:35.227Z,51.85
2023-01-11T14:27:41.850Z,50.20
2023-01-11T14:30:25.248Z,49.76
2023-01-11T14:33:32.307Z,51.69
2023-01-11T14:36:26.273Z,51.19
2023-01-11T14:39:23.864Z,52.66
2023-01-11T14:42:31.100Z,53.07
2023-01-11T14:45:17.314Z,51.57
2023-01-11T14:48:26.932Z,53.90
2023-01-11T14:51:30.712Z,55.18
2023-01-11T14:54:08.026Z,55.03
2023-01-11T14:56:52.997Z,55.89
2023-01-11T14:59:35.533Z,57.02
2023-01-11T15:02:31.023Z,57.36
2023-01-11T15:05:10.867Z,58.37
2023-01-11T15:07:43.360Z,57.30
2023-01-11T15:10:42.058Z,58.50
2023-01-11T15:13:17.406Z,59.86
2023-01-11T15:16:04.690Z,58.63
2023-01-11T15:18:33.409Z,58.37
2023-01-11T15:21:06.537Z,60.89
2023-01-11T15:23:38.303Z,62.11
2023-01-11T15:26:09.610Z,59.75
2023-01-11T15:28:50.786Z,60.14
2023-01-11T15:31:52.552Z,61.07
2023-01-11T15:34:26.572Z,62.15
2023-01-11T15:37:29.575Z,61.48
2023-01-11T15:40:02.622Z,61.89
2023-01-11T15:43:08.776Z,61.94
2023-01-11T15:46:24.296Z,60.94
2023-01-11T15:49:21.409Z,61.53
2023-01-11T15:52:18.021Z,61.79
2023-01-11T15:55:18.836Z,63.40
2023-01-11T15:58:15.986Z,63.50
2023-01-11T16:01:09.326Z,66.42
2023-01-11T16:03:58.946Z,64.52
2023-01-11T16:06:39.094Z,63.92
2023-01-11T16:09:26.079Z,65.38
2023-01-11T16:12:06.628Z,65.28
2023-01-11T16:14:53.076Z,64.72
2023-01-11T16:17:24.195Z,64.88
2023-01-11T16:19:56.797Z,67.51
2023-01-11T16:22:29.292Z,64.29
2023-01-11T16:25:05.525Z,64.86
2023-01-11T16:27:38.991Z,64.59
2023-01-11T16:30:16.442Z,64.42
2023-01-11T16:32:45.415Z,64.95
2023-01-11T16:35:26.096Z,63.93
2023-01-11T16:37:59.801Z,64.88
2023-01-11T16:40:33.419Z,66.30
2023-01-11T16:43:08.017Z,65.54
2023-01-11T16:45:42.751Z,65.94
2023-01-11T16:48:17.167Z,65.13
2023-01-11T16:51:04.039Z,66.40
2023-01-11T16:53:34.011Z,65.10
2023-01-11T16:56:07.267Z,64.98
2023-01-11T16:58:40.699Z,65.89
2023-01-11T17:01:12.055Z,66.07
2023-01-11T17:03:49.382Z,66.58
2023-01-11T17:06:22.652Z,65.21
2023-01-11T17:08:52.610Z,66.31
2023-01-11T17:11:27.096Z,64.90
2023-01-11T17:14:37.020Z,65.69
2023-01-11T17:17:10.041Z,66.87
2023-01-11T17:19:47.708Z,65.49
2023-01-11T17:22:25.234Z,66.25
2023-01-11T17:24:57.356Z,67.16
2023-01-11T17:27:31.142Z,65.04
2023-01-11T17:30:01.295Z,67.07
2023-01-11T17:32:37.263Z,66.47
2023-01-11T17:35:15.652Z,66.05
2023-01-11T17:37:46.749Z,67.50
2023-01-11T17:40:23.864Z,66.32
2023-01-11T17:43:10.700Z,65.12
2023-01-11T17:45:39.966Z,66.10
2023-01-11T17:48:14.004Z,64.00
2023-01-11T17:50:49.057Z,64.03
2023-01-11T17:53:25.923Z,63.48
2023-01-11T17:55:56.116Z,62.65
2023-01-11T17:58:27.571Z,63.04
2023-01-11T18:01:24.980Z,63.06
2023-01-11T18:03:54.693Z,63.46
2023-01-11T18:06:28.263Z,65.08
2023-01-11T18:08:59.504Z,66.31
2023-01-11T18:11:29.804Z,66.98
2023-01-11T18:14:01.149Z,67.24
2023-01-11T18:16:29.932Z,66.77
2023-01-11T18:18:58.524Z,67.17
2023-01-11T18:21:42.224Z,66.97
2023-01-11T18:24:48.089Z,67.04
2023-01-11T18:27:30.416Z,67.15
2023-01-11T18:30:06.303Z,68.95
2023-01-11T18:32:42.223Z,70.29
2023-01-11T18:35:19.013Z,70.97
2023-01-11T18:37:48.270Z,70.12
2023-01-11T18:40:19.509Z,69.03
2023-01-11T18:42:50.069Z,69.76
2023-01-11T18:45:18.824Z,70.32
2023-01-11T18:47:47.373Z,69.10
2023-01-11T18:50:18.066Z,69.87
2023-01-11T18:52:47.580Z,68.89
2023-01-11T18:55:18.016Z,68.71
2023-01-11T18:57:47.530Z,69.35
2023-01-11T19:00:18.712Z,68.81
2023-01-11T19:02:47.851Z,67.50
2023-01-11T19:05:19.354Z,67.30
2023-01-11T19:07:48.611Z,67.53
2023-01-11T19:10:20.984Z,68.31
2023-01-11T19:12:49.595Z,69.07
2023-01-11T19:15:18.170Z,68.65
2023-01-11T19:17:52.175Z,67.89
2023-01-11T19:20:21.478Z,67.23
2023-01-11T19:22:52.393Z,67.12
2023-01-11T19:25:23.030Z,67.87
2023-01-11T19:27:54.811Z,68.83
2023-01-11T19:30:35.484Z,70.96
2023-01-11T19:33:05.888Z,72.40
2023-01-11T19:35:37.261Z,73.18
2023-01-11T19:38:22.359Z,73.20
2023-01-11T19:40:52.199Z,75.24
2023-01-11T19:43:21.034Z,75.47
2023-01-11T19:46:00.394Z,75.87
2023-01-11T19:48:43.383Z,75.83
2023-01-11T19:51:14.212Z,75.61
2023-01-11T19:53:42.821Z,74.65
2023-01-11T19:56:12.583Z,74.09
2023-01-11T19:58:40.954Z,73.13
2023-01-11T20:01:13.770Z,73.11
2023-01-11T20:03:42.838Z,73.89
2023-01-11T20:06:11.439Z,74.55
2023-01-11T20:08:42.132Z,74.15
2023-01-11T20:11:14.853Z,74.79
2023-01-11T20:13:45.517Z,73.59
2023-01-11T20:16:15.189Z,73.54
2023-01-11T20:18:43.577Z,72.45
2023-01-11T20:21:13.794Z,72.08
2023-01-11T20:23:41.981Z,73.24
2023-01-11T20:26:15.638Z,73.76
2023-01-11T20:28:50.395Z,72.56
2023-01-11T20:31:22.108Z,72.68
2023-01-11T20:33:55.053Z,73.18
2023-01-11T20:36:26.838Z,73.98
2023-01-11T20:38:55.714Z,73.10
2023-01-11T20:41:44.578Z,74.24
2023-01-11T20:44:16.261Z,75.17
2023-01-11T20:46:47.735Z,75.13
2023-01-11T20:49:32.209Z,74.93
2023-01-11T20:52:00.799Z,75.00
2023-01-11T20:54:40.389Z,75.29
2023-01-11T20:57:12.715Z,75.68
2023-01-11T20:59:42.592Z,75.67
2023-01-11T21:02:13.712Z,76.31
2023-01-11T21:04:42.137Z,75.88
2023-01-11T21:07:10.877Z,75.58
2023-01-11T21:09:39.338Z,76.64
2023-01-11T21:12:09.530Z,75.10
2023-01-11T21:14:41.167Z,74.52
2023-01-11T21:17:10.945Z,74.80
2023-01-11T21:19:39.436Z,73.48
2023-01-11T21:22:07.752Z,73.36
2023-01-11T21:24:38.699Z,73.07
2023-01-11T21:27:07.054Z,73.96
2023-01-11T21:29:35.546Z,74.52
2023-01-11T21:32:03.916Z,74.22
2023-01-11T21:34:33.567Z,73.72
2023-01-11T21:37:01.847Z,74.06
2023-01-11T21:39:30.122Z,75.57
2023-01-11T21:41:59.815Z,75.01
2023-01-11T21:44:33.800Z,74.42
2023-01-11T21:47:03.771Z,72.76
2023-01-11T21:49:34.340Z,71.94
2023-01-11T21:52:02.651Z,71.24
2023-01-11T21:54:31.030Z,70.38
2023-01-11T21:56:59.305Z,72.70
2023-01-11T21:59:28.194Z,72.61
2023-01-11T22:01:56.447Z,72.39
2023-01-11T22:04:24.813Z,72.70
2023-01-11T22:06:55.898Z,71.38
2023-01-11T22:09:25.858Z,72.80
2023-01-11T22:11:54.272Z,74.22
2023-01-11T22:14:22.768Z,74.20
2023-01-11T22:16:51.294Z,74.66
2023-01-11T22:19:19.821Z,74.30
2023-01-11T22:21:48.070Z,75.40
2023-01-11T22:24:18.035Z,75.96
2023-01-11T22:26:46.372Z,76.25
2023-01-11T22:29:15.957Z,74.95
2023-01-11T22:31:47.281Z,73.91
2023-01-11T22:34:16.615Z,74.92
2023-01-11T22:36:46.046Z,75.57
2023-01-11T22:39:15.352Z,75.06
2023-01-11T22:41:46.120Z,75.83
2023-01-11T22:44:15.771Z,75.74
2023-01-11T22:46:44.804Z,75.38
2023-01-11T22:49:14.171Z,76.06
2023-01-11T22:51:43.790Z,75.86
2023-01-11T22:54:12.563Z,76.19
2023-01-11T22:56:41.375Z,75.79
2023-01-11T22:59:11.394Z,76.18
2023-01-11T23:01:41.164Z,77.28
2023-01-11T23:04:13.389Z,77.13
2023-01-11T23:06:43.396Z,77.39
2023-01-11T23:09:15.911Z,76.04
2023-01-11T23:12:02.615Z,77.59
2023-01-11T23:14:33.830Z,77.03
2023-01-11T23:17:05.261Z,76.47
2023-01-11T23:19:34.061Z,75.72
2023-01-11T23:22:02.487Z,75.83
2023-01-11T23:24:30.862Z,75.31
2023-01-11T23:26:59.346Z,74.89
2023-01-11T23:29:27.774Z,75.40
2023-01-11T23:31:57.640Z,73.37
2023-01-11T23:34:26.088Z,74.07
2023-01-11T23:36:54.377Z,73.62
2023-01-11T23:39:23.973Z,73.69
2023-01-11T23:42:09.778Z,74.57
2023-01-11T23:44:38.085Z,73.80
2023-01-11T23:47:22.067Z,75.46
2023-01-11T23:49:51.342Z,76.19
2023-01-11T23:52:21.018Z,76.44
2023-01-11T23:54:49.417Z,75.56
2023-01-11T23:57:19.334Z,75.19
2023-01-11T23:59:47.943Z,75.35
